sensor_id;sensor_type;location;lat;lon;timestamp;pressure;altitude;pressure_sealevel;temperature;humidity
59106;BME280;44891;50.204;8.132;2023-05-03T00:02:23;99291.34;;;4.55;81.07
59106;BME280;44891;50.204;8.132;2023-05-03T00:06:25;99287.78;;;4.56;80.56
59106;BME280;44891;50.204;8.132;2023-05-03T00:10:27;99297.47;;;4.40;80.84
59106;BME280;44891;50.204;8.132;2023-05-03T00:14:29;99299.34;;;4.54;80.69
59106;BME280;44891;50.204;8.132;2023-05-03T00:18:32;99295.56;;;4.33;80.85
59106;BME280;44891;50.204;8.132;2023-05-03T00:22:34;99304.47;;;4.39;81.11
59106;BME280;44891;50.204;8.132;2023-05-03T00:26:36;99296.03;;;4.37;80.96
59106;BME280;44891;50.204;8.132;2023-05-03T00:30:38;99290.97;;;4.35;80.44
59106;BME280;44891;50.204;8.132;2023-05-03T00:34:41;99281.94;;;4.31;80.36
59106;BME280;44891;50.204;8.132;2023-05-03T00:38:43;99280.47;;;3.98;80.77
59106;BME280;44891;50.204;8.132;2023-05-03T00:42:45;99267.78;;;3.95;81.63
59106;BME280;44891;50.204;8.132;2023-05-03T00:46:47;99262.59;;;4.03;80.87
59106;BME280;44891;50.204;8.132;2023-05-03T00:50:51;99265.69;;;3.98;81.07
59106;BME280;44891;50.204;8.132;2023-05-03T00:54:54;99268.06;;;4.08;80.11
59106;BME280;44891;50.204;8.132;2023-05-03T00:58:57;99257.56;;;3.93;80.72
59106;BME280;44891;50.204;8.132;2023-05-03T01:02:59;99254.66;;;3.88;81.29
59106;BME280;44891;50.204;8.132;2023-05-03T01:07:06;99260.41;;;3.84;81.23
59106;BME280;44891;50.204;8.132;2023-05-03T01:11:11;99262.31;;;3.90;81.33
59106;BME280;44891;50.204;8.132;2023-05-03T01:15:16;99259.41;;;3.85;81.14
59106;BME280;44891;50.204;8.132;2023-05-03T01:19:25;99251.00;;;3.74;80.91
59106;BME280;44891;50.204;8.132;2023-05-03T01:23:35;99255.81;;;3.38;82.63
59106;BME280;44891;50.204;8.132;2023-05-03T01:27:41;99219.03;;;3.26;82.92
59106;BME280;44891;50.204;8.132;2023-05-03T01:31:45;99249.69;;;3.31;82.65
59106;BME280;44891;50.204;8.132;2023-05-03T01:35:51;99254.03;;;3.39;83.49
59106;BME280;44891;50.204;8.132;2023-05-03T01:39:55;99255.69;;;3.32;83.21
59106;BME280;44891;50.204;8.132;2023-05-03T01:44:00;99251.09;;;3.42;81.41
59106;BME280;44891;50.204;8.132;2023-05-03T01:48:07;99252.59;;;3.28;81.55
59106;BME280;44891;50.204;8.132;2023-05-03T01:52:10;99255.06;;;3.13;82.27
59106;BME280;44891;50.204;8.132;2023-05-03T01:56:12;99261.53;;;3.09;82.55
59106;BME280;44891;50.204;8.132;2023-05-03T02:00:15;99276.16;;;3.02;83.80
59106;BME280;44891;50.204;8.132;2023-05-03T02:04:18;99268.69;;;2.99;83.52
59106;BME280;44891;50.204;8.132;2023-05-03T02:08:19;99266.28;;;2.65;84.08
59106;BME280;44891;50.204;8.132;2023-05-03T02:12:21;99277.75;;;2.62;85.55
59106;BME280;44891;50.204;8.132;2023-05-03T02:16:24;99283.63;;;2.81;84.50
59106;BME280;44891;50.204;8.132;2023-05-03T02:20:27;99280.53;;;2.93;83.40
59106;BME280;44891;50.204;8.132;2023-05-03T02:24:33;99289.78;;;2.88;82.59
59106;BME280;44891;50.204;8.132;2023-05-03T02:28:36;99280.38;;;2.87;83.06
59106;BME280;44891;50.204;8.132;2023-05-03T02:32:39;99281.53;;;2.92;81.95
59106;BME280;44891;50.204;8.132;2023-05-03T02:36:42;99277.13;;;2.77;82.52
59106;BME280;44891;50.204;8.132;2023-05-03T02:40:44;99283.28;;;2.76;82.65
59106;BME280;44891;50.204;8.132;2023-05-03T02:44:45;99286.81;;;2.34;85.04
59106;BME280;44891;50.204;8.132;2023-05-03T02:48:49;99290.38;;;2.57;83.96
59106;BME280;44891;50.204;8.132;2023-05-03T02:52:51;99280.97;;;2.32;84.80
59106;BME280;44891;50.204;8.132;2023-05-03T02:56:53;99274.19;;;2.47;85.02
59106;BME280;44891;50.204;8.132;2023-05-03T03:00:55;99281.31;;;2.53;84.65
59106;BME280;44891;50.204;8.132;2023-05-03T03:05:00;99271.25;;;2.26;86.16
59106;BME280;44891;50.204;8.132;2023-05-03T03:09:02;99265.09;;;2.43;84.92
59106;BME280;44891;50.204;8.132;2023-05-03T03:13:04;99254.59;;;2.44;85.08
59106;BME280;44891;50.204;8.132;2023-05-03T03:17:11;99254.75;;;2.51;84.57
59106;BME280;44891;50.204;8.132;2023-05-03T03:21:15;99252.47;;;2.48;84.38
59106;BME280;44891;50.204;8.132;2023-05-03T03:25:19;99253.09;;;2.26;85.04
59106;BME280;44891;50.204;8.132;2023-05-03T03:29:21;99249.97;;;2.06;86.92
59106;BME280;44891;50.204;8.132;2023-05-03T03:33:23;99254.69;;;2.18;86.15
59106;BME280;44891;50.204;8.132;2023-05-03T03:37:31;99244.34;;;2.18;85.81
59106;BME280;44891;50.204;8.132;2023-05-03T03:41:33;99258.22;;;2.09;84.76
59106;BME280;44891;50.204;8.132;2023-05-03T03:45:35;99259.34;;;2.07;84.66
59106;BME280;44891;50.204;8.132;2023-05-03T03:49:39;99273.75;;;2.01;84.70
59106;BME280;44891;50.204;8.132;2023-05-03T03:53:42;99287.28;;;1.79;85.27
59106;BME280;44891;50.204;8.132;2023-05-03T03:57:44;99284.13;;;2.09;84.81
59106;BME280;44891;50.204;8.132;2023-05-03T04:01:46;99287.88;;;2.15;83.93
59106;BME280;44891;50.204;8.132;2023-05-03T04:05:49;99291.28;;;2.15;83.50
59106;BME280;44891;50.204;8.132;2023-05-03T04:09:55;99295.13;;;2.03;83.95
59106;BME280;44891;50.204;8.132;2023-05-03T04:13:59;99291.59;;;2.12;83.94
59106;BME280;44891;50.204;8.132;2023-05-03T04:18:01;99277.66;;;2.05;84.21
59106;BME280;44891;50.204;8.132;2023-05-03T04:22:04;99277.16;;;2.10;84.09
59106;BME280;44891;50.204;8.132;2023-05-03T04:26:08;99268.59;;;2.17;83.04
59106;BME280;44891;50.204;8.132;2023-05-03T04:30:11;99266.44;;;1.97;83.61
59106;BME280;44891;50.204;8.132;2023-05-03T04:34:17;99270.69;;;2.06;83.75
59106;BME280;44891;50.204;8.132;2023-05-03T04:38:22;99279.91;;;2.00;85.05
59106;BME280;44891;50.204;8.132;2023-05-03T04:42:25;99279.44;;;2.05;85.30
59106;BME280;44891;50.204;8.132;2023-05-03T04:46:28;99269.25;;;2.11;85.18
59106;BME280;44891;50.204;8.132;2023-05-03T04:50:30;99276.69;;;2.06;86.81
59106;BME280;44891;50.204;8.132;2023-05-03T04:54:32;99277.56;;;2.31;85.30
59106;BME280;44891;50.204;8.132;2023-05-03T04:58:36;99273.03;;;2.41;85.15
59106;BME280;44891;50.204;8.132;2023-05-03T05:02:39;99269.00;;;2.47;84.90
59106;BME280;44891;50.204;8.132;2023-05-03T05:06:42;99281.66;;;2.58;84.82
59106;BME280;44891;50.204;8.132;2023-05-03T05:10:49;99278.59;;;2.71;84.29
59106;BME280;44891;50.204;8.132;2023-05-03T05:14:57;99276.16;;;2.78;83.64
59106;BME280;44891;50.204;8.132;2023-05-03T05:18:59;99275.66;;;2.82;83.50
59106;BME280;44891;50.204;8.132;2023-05-03T05:23:02;99275.34;;;2.85;86.28
59106;BME280;44891;50.204;8.132;2023-05-03T05:27:05;99288.81;;;3.05;85.70
59106;BME280;44891;50.204;8.132;2023-05-03T05:31:08;99295.28;;;3.01;84.62
59106;BME280;44891;50.204;8.132;2023-05-03T05:35:10;99285.84;;;3.33;83.76
59106;BME280;44891;50.204;8.132;2023-05-03T05:39:12;99280.97;;;3.46;82.80
59106;BME280;44891;50.204;8.132;2023-05-03T05:43:14;99279.81;;;3.57;82.29
59106;BME280;44891;50.204;8.132;2023-05-03T05:47:21;99280.59;;;3.65;83.17
59106;BME280;44891;50.204;8.132;2023-05-03T05:51:25;99285.41;;;3.85;83.35
59106;BME280;44891;50.204;8.132;2023-05-03T05:55:28;99273.63;;;4.05;82.48
59106;BME280;44891;50.204;8.132;2023-05-03T05:59:31;99268.16;;;4.23;82.61
59106;BME280;44891;50.204;8.132;2023-05-03T06:03:34;99239.09;;;4.19;81.57
59106;BME280;44891;50.204;8.132;2023-05-03T06:07:39;99287.38;;;4.45;82.59
59106;BME280;44891;50.204;8.132;2023-05-03T06:11:42;99287.91;;;4.63;82.31
59106;BME280;44891;50.204;8.132;2023-05-03T06:15:46;99299.63;;;4.82;82.84
59106;BME280;44891;50.204;8.132;2023-05-03T06:19:49;99299.53;;;5.13;83.64
59106;BME280;44891;50.204;8.132;2023-05-03T06:23:53;99302.22;;;5.42;83.50
59106;BME280;44891;50.204;8.132;2023-05-03T06:27:55;99293.16;;;5.68;83.31
59106;BME280;44891;50.204;8.132;2023-05-03T06:32:01;99291.56;;;5.96;81.87
59106;BME280;44891;50.204;8.132;2023-05-03T06:36:06;99290.00;;;6.17;80.87
59106;BME280;44891;50.204;8.132;2023-05-03T06:40:10;99289.22;;;6.38;80.87
59106;BME280;44891;50.204;8.132;2023-05-03T06:44:12;99296.78;;;6.69;78.10
59106;BME280;44891;50.204;8.132;2023-05-03T06:48:14;99294.97;;;6.91;75.49
59106;BME280;44891;50.204;8.132;2023-05-03T06:52:17;99288.84;;;7.05;74.64
59106;BME280;44891;50.204;8.132;2023-05-03T06:56:19;99287.84;;;7.27;73.81
59106;BME280;44891;50.204;8.132;2023-05-03T07:00:21;99296.03;;;7.52;72.58
59106;BME280;44891;50.204;8.132;2023-05-03T07:04:23;99284.06;;;7.71;71.15
59106;BME280;44891;50.204;8.132;2023-05-03T07:08:26;99287.22;;;7.95;70.33
59106;BME280;44891;50.204;8.132;2023-05-03T07:12:28;99286.47;;;8.07;68.76
59106;BME280;44891;50.204;8.132;2023-05-03T07:16:30;99283.91;;;8.21;67.14
59106;BME280;44891;50.204;8.132;2023-05-03T07:20:32;99289.22;;;8.40;66.96
59106;BME280;44891;50.204;8.132;2023-05-03T07:24:35;99285.00;;;8.39;63.81
59106;BME280;44891;50.204;8.132;2023-05-03T07:28:37;99289.84;;;8.49;63.27
59106;BME280;44891;50.204;8.132;2023-05-03T07:32:39;99271.97;;;8.73;62.52
59106;BME280;44891;50.204;8.132;2023-05-03T07:36:41;99275.63;;;8.78;62.07
59106;BME280;44891;50.204;8.132;2023-05-03T07:40:44;99274.78;;;9.24;61.73
59106;BME280;44891;50.204;8.132;2023-05-03T07:44:46;99280.41;;;9.47;60.34
59106;BME280;44891;50.204;8.132;2023-05-03T07:48:47;99262.84;;;9.48;58.86
59106;BME280;44891;50.204;8.132;2023-05-03T07:52:49;99267.03;;;9.69;59.88
59106;BME280;44891;50.204;8.132;2023-05-03T07:56:53;99271.59;;;10.00;56.40
59106;BME280;44891;50.204;8.132;2023-05-03T08:00:55;99274.78;;;10.08;58.74
59106;BME280;44891;50.204;8.132;2023-05-03T08:04:56;99266.81;;;10.35;57.21
59106;BME280;44891;50.204;8.132;2023-05-03T08:08:58;99266.97;;;10.40;58.43
59106;BME280;44891;50.204;8.132;2023-05-03T08:13:01;99263.22;;;10.61;57.16
59106;BME280;44891;50.204;8.132;2023-05-03T08:17:03;99267.03;;;10.65;55.95
59106;BME280;44891;50.204;8.132;2023-05-03T08:21:05;99265.97;;;10.73;57.55
59106;BME280;44891;50.204;8.132;2023-05-03T08:25:08;99266.91;;;10.85;55.38
59106;BME280;44891;50.204;8.132;2023-05-03T08:29:11;99228.69;;;10.82;54.32
59106;BME280;44891;50.204;8.132;2023-05-03T08:33:13;99265.72;;;11.06;52.69
59106;BME280;44891;50.204;8.132;2023-05-03T08:37:15;99265.38;;;11.21;53.29
59106;BME280;44891;50.204;8.132;2023-05-03T08:41:19;99256.34;;;11.16;52.66
59106;BME280;44891;50.204;8.132;2023-05-03T08:45:24;99263.81;;;11.38;53.63
59106;BME280;44891;50.204;8.132;2023-05-03T08:49:26;99259.72;;;11.60;52.76
59106;BME280;44891;50.204;8.132;2023-05-03T08:53:29;99259.97;;;11.59;51.77
59106;BME280;44891;50.204;8.132;2023-05-03T08:57:30;99250.66;;;11.75;51.40
59106;BME280;44891;50.204;8.132;2023-05-03T09:01:35;99251.03;;;11.78;50.53
59106;BME280;44891;50.204;8.132;2023-05-03T09:05:37;99251.88;;;11.97;50.82
59106;BME280;44891;50.204;8.132;2023-05-03T09:09:40;99252.94;;;12.08;49.61
59106;BME280;44891;50.204;8.132;2023-05-03T09:13:42;99253.75;;;12.08;49.00
59106;BME280;44891;50.204;8.132;2023-05-03T09:17:47;99254.69;;;12.14;49.13
59106;BME280;44891;50.204;8.132;2023-05-03T09:22:06;99244.06;;;12.20;48.18
59106;BME280;44891;50.204;8.132;2023-05-03T09:26:08;99220.50;;;12.25;48.79
59106;BME280;44891;50.204;8.132;2023-05-03T09:30:19;99243.34;;;12.43;47.88
59106;BME280;44891;50.204;8.132;2023-05-03T09:34:23;99238.22;;;12.60;48.22
59106;BME280;44891;50.204;8.132;2023-05-03T09:38:26;99232.44;;;12.70;48.77
59106;BME280;44891;50.204;8.132;2023-05-03T09:42:30;99228.91;;;12.99;47.59
59106;BME280;44891;50.204;8.132;2023-05-03T09:46:32;99229.81;;;13.05;46.64
59106;BME280;44891;50.204;8.132;2023-05-03T09:50:35;99215.28;;;13.14;46.75
59106;BME280;44891;50.204;8.132;2023-05-03T09:54:37;99218.16;;;13.36;46.35
59106;BME280;44891;50.204;8.132;2023-05-03T09:58:39;99211.31;;;13.64;46.20
59106;BME280;44891;50.204;8.132;2023-05-03T10:02:41;99209.16;;;13.60;44.84
59106;BME280;44891;50.204;8.132;2023-05-03T10:06:47;99213.59;;;13.72;45.22
59106;BME280;44891;50.204;8.132;2023-05-03T10:10:49;99225.69;;;13.96;45.85
59106;BME280;44891;50.204;8.132;2023-05-03T10:14:53;99230.72;;;14.09;45.18
59106;BME280;44891;50.204;8.132;2023-05-03T10:18:58;99224.66;;;14.26;43.74
59106;BME280;44891;50.204;8.132;2023-05-03T10:23:07;99221.25;;;14.42;44.25
59106;BME280;44891;50.204;8.132;2023-05-03T10:27:10;99215.63;;;14.67;44.09
59106;BME280;44891;50.204;8.132;2023-05-03T10:35:32;99199.91;;;14.94;42.17
59106;BME280;44891;50.204;8.132;2023-05-03T10:39:36;99197.66;;;15.03;43.89
59106;BME280;44891;50.204;8.132;2023-05-03T10:43:41;99198.44;;;15.20;42.64
59106;BME280;44891;50.204;8.132;2023-05-03T10:47:44;99189.97;;;15.40;41.98
59106;BME280;44891;50.204;8.132;2023-05-03T10:56:24;99197.22;;;15.49;40.66
59106;BME280;44891;50.204;8.132;2023-05-03T11:00:27;99184.75;;;15.89;41.33
59106;BME280;44891;50.204;8.132;2023-05-03T11:04:35;99183.88;;;16.05;40.33
59106;BME280;44891;50.204;8.132;2023-05-03T11:08:40;99176.69;;;16.33;40.48
59106;BME280;44891;50.204;8.132;2023-05-03T11:12:49;99176.53;;;16.17;40.58
59106;BME280;44891;50.204;8.132;2023-05-03T11:16:51;99174.97;;;16.48;40.06
59106;BME280;44891;50.204;8.132;2023-05-03T11:20:56;99172.91;;;16.55;39.97
59106;BME280;44891;50.204;8.132;2023-05-03T11:24:58;99163.63;;;16.53;39.71
59106;BME280;44891;50.204;8.132;2023-05-03T11:29:01;99156.28;;;16.65;40.56
59106;BME280;44891;50.204;8.132;2023-05-03T11:33:04;99150.13;;;16.92;40.99
59106;BME280;44891;50.204;8.132;2023-05-03T11:37:07;99135.47;;;17.31;39.68
59106;BME280;44891;50.204;8.132;2023-05-03T11:41:10;99136.16;;;17.11;38.73
59106;BME280;44891;50.204;8.132;2023-05-03T11:45:14;99129.88;;;17.28;40.03
59106;BME280;44891;50.204;8.132;2023-05-03T11:49:16;99123.31;;;17.46;38.92
59106;BME280;44891;50.204;8.132;2023-05-03T11:53:18;99129.44;;;17.61;37.92
59106;BME280;44891;50.204;8.132;2023-05-03T11:57:21;99121.72;;;17.55;37.11
59106;BME280;44891;50.204;8.132;2023-05-03T12:01:24;99115.59;;;17.49;36.54
59106;BME280;44891;50.204;8.132;2023-05-03T12:05:26;99113.81;;;17.70;37.07
59106;BME280;44891;50.204;8.132;2023-05-03T12:09:30;99114.13;;;17.94;37.32
59106;BME280;44891;50.204;8.132;2023-05-03T12:13:32;99116.28;;;17.92;36.51
59106;BME280;44891;50.204;8.132;2023-05-03T12:17:37;99117.09;;;18.03;35.33
59106;BME280;44891;50.204;8.132;2023-05-03T12:21:42;99112.28;;;18.35;36.01
59106;BME280;44891;50.204;8.132;2023-05-03T12:25:44;99105.13;;;18.15;35.19
59106;BME280;44891;50.204;8.132;2023-05-03T12:29:46;99104.84;;;18.22;35.74
59106;BME280;44891;50.204;8.132;2023-05-03T12:33:49;99099.28;;;18.34;35.51
59106;BME280;44891;50.204;8.132;2023-05-03T12:37:51;99094.47;;;18.56;35.51
59106;BME280;44891;50.204;8.132;2023-05-03T12:41:53;99090.50;;;18.43;35.57
59106;BME280;44891;50.204;8.132;2023-05-03T12:45:55;99081.91;;;18.97;34.36
59106;BME280;44891;50.204;8.132;2023-05-03T12:50:03;99072.53;;;19.10;34.43
59106;BME280;44891;50.204;8.132;2023-05-03T12:54:05;99069.22;;;18.69;33.81
59106;BME280;44891;50.204;8.132;2023-05-03T12:58:07;99061.63;;;19.01;35.45
59106;BME280;44891;50.204;8.132;2023-05-03T13:02:09;99057.28;;;19.26;34.69
59106;BME280;44891;50.204;8.132;2023-05-03T13:06:13;99057.91;;;19.57;34.30
59106;BME280;44891;50.204;8.132;2023-05-03T13:10:15;99053.72;;;19.90;32.63
59106;BME280;44891;50.204;8.132;2023-05-03T13:14:18;99048.59;;;20.28;32.36
59106;BME280;44891;50.204;8.132;2023-05-03T13:18:20;99044.13;;;20.18;33.04
59106;BME280;44891;50.204;8.132;2023-05-03T13:22:24;99040.03;;;20.02;33.80
59106;BME280;44891;50.204;8.132;2023-05-03T13:26:25;99030.44;;;20.01;33.21
59106;BME280;44891;50.204;8.132;2023-05-03T13:30:28;99035.06;;;20.19;32.79
59106;BME280;44891;50.204;8.132;2023-05-03T13:34:30;99023.22;;;20.59;31.73
59106;BME280;44891;50.204;8.132;2023-05-03T13:38:34;99021.94;;;20.28;31.17
59106;BME280;44891;50.204;8.132;2023-05-03T13:42:36;99021.88;;;20.62;31.15
59106;BME280;44891;50.204;8.132;2023-05-03T13:46:38;99022.19;;;20.79;31.06
59106;BME280;44891;50.204;8.132;2023-05-03T13:50:40;99008.81;;;20.60;30.99
59106;BME280;44891;50.204;8.132;2023-05-03T13:54:44;99001.63;;;20.80;31.52
59106;BME280;44891;50.204;8.132;2023-05-03T13:58:45;99000.16;;;21.11;31.56
59106;BME280;44891;50.204;8.132;2023-05-03T14:02:47;98988.34;;;21.55;30.68
59106;BME280;44891;50.204;8.132;2023-05-03T14:06:50;98987.66;;;21.82;29.86
59106;BME280;44891;50.204;8.132;2023-05-03T14:10:54;98976.19;;;22.28;29.94
59106;BME280;44891;50.204;8.132;2023-05-03T14:14:55;98969.00;;;22.10;29.59
59106;BME280;44891;50.204;8.132;2023-05-03T14:18:57;98967.75;;;21.56;30.57
59106;BME280;44891;50.204;8.132;2023-05-03T14:22:59;98958.66;;;21.00;31.44
59106;BME280;44891;50.204;8.132;2023-05-03T14:27:02;98954.03;;;21.25;30.98
59106;BME280;44891;50.204;8.132;2023-05-03T14:31:04;98956.44;;;21.26;31.40
59106;BME280;44891;50.204;8.132;2023-05-03T14:35:07;98949.81;;;21.75;30.01
59106;BME280;44891;50.204;8.132;2023-05-03T14:39:09;98952.66;;;22.11;29.86
59106;BME280;44891;50.204;8.132;2023-05-03T14:43:15;98949.31;;;22.33;29.66
59106;BME280;44891;50.204;8.132;2023-05-03T14:47:17;98944.03;;;22.83;29.08
59106;BME280;44891;50.204;8.132;2023-05-03T14:51:19;98943.53;;;22.95;28.58
59106;BME280;44891;50.204;8.132;2023-05-03T14:55:20;98936.78;;;22.70;28.71
59106;BME280;44891;50.204;8.132;2023-05-03T14:59:23;98941.16;;;22.79;28.85
59106;BME280;44891;50.204;8.132;2023-05-03T15:03:26;98931.66;;;22.87;28.25
59106;BME280;44891;50.204;8.132;2023-05-03T15:07:28;98936.97;;;23.01;28.12
59106;BME280;44891;50.204;8.132;2023-05-03T15:11:31;98926.28;;;23.46;29.02
59106;BME280;44891;50.204;8.132;2023-05-03T15:15:34;98922.88;;;23.31;28.55
59106;BME280;44891;50.204;8.132;2023-05-03T15:19:36;98924.59;;;23.72;29.06
59106;BME280;44891;50.204;8.132;2023-05-03T15:23:38;98913.47;;;24.27;28.08
59106;BME280;44891;50.204;8.132;2023-05-03T15:27:41;98917.41;;;23.90;27.99
59106;BME280;44891;50.204;8.132;2023-05-03T15:31:44;98914.59;;;23.95;28.33
59106;BME280;44891;50.204;8.132;2023-05-03T15:35:46;98915.28;;;24.09;28.24
59106;BME280;44891;50.204;8.132;2023-05-03T15:39:48;98921.63;;;24.13;27.34
59106;BME280;44891;50.204;8.132;2023-05-03T15:43:50;98917.63;;;23.49;27.50
59106;BME280;44891;50.204;8.132;2023-05-03T15:47:53;98905.69;;;23.55;27.92
59106;BME280;44891;50.204;8.132;2023-05-03T15:51:55;98902.53;;;24.15;28.18
59106;BME280;44891;50.204;8.132;2023-05-03T15:55:56;98907.81;;;23.22;28.07
59106;BME280;44891;50.204;8.132;2023-05-03T15:59:58;98910.13;;;22.78;29.11
59106;BME280;44891;50.204;8.132;2023-05-03T16:04:02;98891.94;;;22.25;29.23
59106;BME280;44891;50.204;8.132;2023-05-03T16:08:04;98893.50;;;21.53;27.87
59106;BME280;44891;50.204;8.132;2023-05-03T16:12:07;98905.72;;;20.64;28.69
59106;BME280;44891;50.204;8.132;2023-05-03T16:16:09;98891.94;;;20.57;28.36
59106;BME280;44891;50.204;8.132;2023-05-03T16:20:13;98894.84;;;20.80;29.55
59106;BME280;44891;50.204;8.132;2023-05-03T16:24:15;98901.25;;;20.36;30.64
59106;BME280;44891;50.204;8.132;2023-05-03T16:28:17;98902.53;;;19.91;30.72
59106;BME280;44891;50.204;8.132;2023-05-03T16:32:18;98900.69;;;19.57;32.37
59106;BME280;44891;50.204;8.132;2023-05-03T16:36:22;98908.41;;;19.24;32.26
59106;BME280;44891;50.204;8.132;2023-05-03T16:40:24;98904.97;;;19.19;32.31
59106;BME280;44891;50.204;8.132;2023-05-03T16:44:25;98906.84;;;19.18;33.92
59106;BME280;44891;50.204;8.132;2023-05-03T16:48:27;98899.16;;;19.17;33.59
59106;BME280;44891;50.204;8.132;2023-05-03T16:52:31;98893.19;;;18.91;34.90
59106;BME280;44891;50.204;8.132;2023-05-03T16:56:34;98887.09;;;18.85;35.83
59106;BME280;44891;50.204;8.132;2023-05-03T17:00:37;98900.50;;;18.65;35.83
59106;BME280;44891;50.204;8.132;2023-05-03T17:04:38;98897.56;;;18.61;34.54
59106;BME280;44891;50.204;8.132;2023-05-03T17:08:42;98892.09;;;18.37;34.70
59106;BME280;44891;50.204;8.132;2023-05-03T17:12:45;98893.75;;;18.23;36.08
59106;BME280;44891;50.204;8.132;2023-05-03T17:16:47;98900.38;;;18.31;36.77
59106;BME280;44891;50.204;8.132;2023-05-03T17:20:50;98900.72;;;17.99;38.12
59106;BME280;44891;50.204;8.132;2023-05-03T17:24:55;98895.66;;;18.02;38.00
59106;BME280;44891;50.204;8.132;2023-05-03T17:28:57;98896.47;;;17.98;38.68
59106;BME280;44891;50.204;8.132;2023-05-03T17:32:59;98900.78;;;17.83;38.07
59106;BME280;44891;50.204;8.132;2023-05-03T17:37:00;98893.31;;;17.70;38.46
59106;BME280;44891;50.204;8.132;2023-05-03T17:41:04;98897.84;;;17.64;38.29
59106;BME280;44891;50.204;8.132;2023-05-03T17:45:07;98896.00;;;17.50;38.67
59106;BME280;44891;50.204;8.132;2023-05-03T17:49:09;98901.28;;;17.55;38.44
59106;BME280;44891;50.204;8.132;2023-05-03T17:53:11;98897.56;;;17.30;39.03
59106;BME280;44891;50.204;8.132;2023-05-03T17:57:14;98895.94;;;17.14;40.19
59106;BME280;44891;50.204;8.132;2023-05-03T18:01:16;98896.47;;;17.01;40.20
59106;BME280;44891;50.204;8.132;2023-05-03T18:05:18;98892.19;;;16.79;40.64
59106;BME280;44891;50.204;8.132;2023-05-03T18:09:20;98895.81;;;16.68;40.79
59106;BME280;44891;50.204;8.132;2023-05-03T18:13:23;98902.94;;;16.52;40.56
59106;BME280;44891;50.204;8.132;2023-05-03T18:17:26;98905.00;;;16.40;41.25
59106;BME280;44891;50.204;8.132;2023-05-03T18:21:28;98909.53;;;16.40;42.00
59106;BME280;44891;50.204;8.132;2023-05-03T18:25:30;98903.09;;;16.25;44.28
59106;BME280;44891;50.204;8.132;2023-05-03T18:29:33;98902.78;;;16.17;45.72
59106;BME280;44891;50.204;8.132;2023-05-03T18:33:35;98909.47;;;15.82;45.54
59106;BME280;44891;50.204;8.132;2023-05-03T18:37:39;98913.91;;;15.44;46.19
59106;BME280;44891;50.204;8.132;2023-05-03T18:41:42;98918.81;;;15.31;47.18
59106;BME280;44891;50.204;8.132;2023-05-03T18:45:45;98921.03;;;15.12;48.37
59106;BME280;44891;50.204;8.132;2023-05-03T18:49:47;98924.84;;;14.94;48.63
59106;BME280;44891;50.204;8.132;2023-05-03T18:53:51;98920.94;;;14.53;50.16
59106;BME280;44891;50.204;8.132;2023-05-03T18:57:53;98927.41;;;14.45;51.23
59106;BME280;44891;50.204;8.132;2023-05-03T19:01:57;98936.72;;;14.31;52.43
59106;BME280;44891;50.204;8.132;2023-05-03T19:05:59;98930.28;;;14.22;52.28
59106;BME280;44891;50.204;8.132;2023-05-03T19:10:01;98924.44;;;13.47;53.87
59106;BME280;44891;50.204;8.132;2023-05-03T19:14:04;98927.84;;;13.19;55.12
59106;BME280;44891;50.204;8.132;2023-05-03T19:18:07;98925.28;;;13.36;55.22
59106;BME280;44891;50.204;8.132;2023-05-03T19:22:09;98929.59;;;13.14;54.38
59106;BME280;44891;50.204;8.132;2023-05-03T19:26:11;98921.44;;;12.70;54.62
59106;BME280;44891;50.204;8.132;2023-05-03T19:30:13;98933.41;;;12.37;55.67
59106;BME280;44891;50.204;8.132;2023-05-03T19:34:16;98927.09;;;12.38;56.91
59106;BME280;44891;50.204;8.132;2023-05-03T19:38:18;98928.97;;;12.26;56.55
59106;BME280;44891;50.204;8.132;2023-05-03T19:42:20;98927.16;;;12.03;56.89
59106;BME280;44891;50.204;8.132;2023-05-03T19:46:21;98915.13;;;11.84;57.55
59106;BME280;44891;50.204;8.132;2023-05-03T19:50:24;98924.88;;;11.83;57.96
59106;BME280;44891;50.204;8.132;2023-05-03T19:54:26;98935.13;;;11.73;58.33
59106;BME280;44891;50.204;8.132;2023-05-03T19:58:28;98934.88;;;11.75;58.48
59106;BME280;44891;50.204;8.132;2023-05-03T20:02:31;98931.78;;;11.66;58.19
59106;BME280;44891;50.204;8.132;2023-05-03T20:06:34;98934.41;;;11.42;58.88
59106;BME280;44891;50.204;8.132;2023-05-03T20:10:36;98935.03;;;11.26;60.17
59106;BME280;44891;50.204;8.132;2023-05-03T20:14:38;98932.53;;;11.31;61.12
59106;BME280;44891;50.204;8.132;2023-05-03T20:18:40;98931.22;;;11.22;61.13
59106;BME280;44891;50.204;8.132;2023-05-03T20:22:43;98924.69;;;11.13;61.37
59106;BME280;44891;50.204;8.132;2023-05-03T20:26:48;98934.56;;;10.69;61.94
59106;BME280;44891;50.204;8.132;2023-05-03T20:30:50;98939.41;;;10.54;62.10
59106;BME280;44891;50.204;8.132;2023-05-03T20:34:52;98931.69;;;10.16;63.41
59106;BME280;44891;50.204;8.132;2023-05-03T20:38:55;98927.22;;;10.23;62.88
59106;BME280;44891;50.204;8.132;2023-05-03T20:42:57;98919.09;;;10.06;63.56
59106;BME280;44891;50.204;8.132;2023-05-03T20:47:00;98917.44;;;10.30;63.84
59106;BME280;44891;50.204;8.132;2023-05-03T20:51:02;98916.56;;;10.36;63.39
59106;BME280;44891;50.204;8.132;2023-05-03T20:55:06;98922.06;;;10.09;63.55
59106;BME280;44891;50.204;8.132;2023-05-03T20:59:08;98914.84;;;10.05;63.10
59106;BME280;44891;50.204;8.132;2023-05-03T21:03:09;98919.22;;;9.93;62.45
59106;BME280;44891;50.204;8.132;2023-05-03T21:07:11;98906.66;;;9.95;61.99
59106;BME280;44891;50.204;8.132;2023-05-03T21:11:14;98908.19;;;10.02;62.00
59106;BME280;44891;50.204;8.132;2023-05-03T21:15:16;98916.81;;;10.09;63.30
59106;BME280;44891;50.204;8.132;2023-05-03T21:19:18;98914.59;;;9.88;63.96
59106;BME280;44891;50.204;8.132;2023-05-03T21:23:20;98920.88;;;9.87;64.75
59106;BME280;44891;50.204;8.132;2023-05-03T21:27:24;98916.81;;;9.91;64.37
59106;BME280;44891;50.204;8.132;2023-05-03T21:31:26;98915.16;;;9.72;64.44
59106;BME280;44891;50.204;8.132;2023-05-03T21:35:27;98918.09;;;9.57;65.03
59106;BME280;44891;50.204;8.132;2023-05-03T21:39:29;98927.16;;;9.30;66.24
59106;BME280;44891;50.204;8.132;2023-05-03T21:43:33;98925.78;;;8.89;67.73